createdAt,value
2018-08-19T00:00:26.610Z,83.60
2018-08-19T00:03:02.576Z,83.30
2018-08-19T00:05:31.140Z,83.00
2018-08-19T00:07:59.687Z,83.20
2018-08-19T00:11:10.950Z,83.70
2018-08-19T00:13:40.077Z,83.80
2018-08-19T00:16:09.952Z,84.00
2018-08-19T00:18:38.557Z,84.20
2018-08-19T00:21:08.977Z,84.00
2018-08-19T00:23:43.061Z,84.20
2018-08-19T00:26:11.750Z,84.40
2018-08-19T00:28:40.273Z,84.70
2018-08-19T00:31:08.811Z,84.50
2018-08-19T00:33:37.458Z,84.60
2018-08-19T00:36:23.969Z,84.30
2018-08-19T00:38:52.967Z,84.40
2018-08-19T00:41:21.559Z,84.30
2018-08-19T00:43:50.134Z,84.40
2018-08-19T00:46:27.503Z,84.60
2018-08-19T00:48:56.316Z,84.70
2018-08-19T00:51:24.905Z,85.50
2018-08-19T00:53:53.492Z,86.40
2018-08-19T00:56:22.081Z,86.20
2018-08-19T00:58:50.704Z,86.10
2018-08-19T01:01:30.522Z,86.10
2018-08-19T01:03:59.655Z,85.90
2018-08-19T01:06:28.391Z,85.70
2018-08-19T01:08:57.004Z,85.90
2018-08-19T01:11:31.094Z,85.80
2018-08-19T01:13:59.795Z,85.70
2018-08-19T01:16:28.428Z,85.60
2018-08-19T01:19:00.039Z,85.90
2018-08-19T01:21:29.805Z,86.20
2018-08-19T01:23:59.721Z,86.30
2018-08-19T01:26:28.413Z,86.50
2018-08-19T01:28:57.404Z,86.60
2018-08-19T01:31:27.241Z,86.70
2018-08-19T01:33:55.852Z,86.80
2018-08-19T01:36:26.846Z,86.80
2018-08-19T01:38:55.530Z,86.50
2018-08-19T01:41:24.262Z,87.00
2018-08-19T01:44:02.513Z,87.00
2018-08-19T01:46:36.717Z,87.20
2018-08-19T01:49:06.675Z,87.30
2018-08-19T01:51:38.051Z,87.30
2018-08-19T01:54:10.926Z,87.60
2018-08-19T01:56:40.023Z,87.60
2018-08-19T01:59:08.569Z,87.80
2018-08-19T02:01:46.515Z,87.60
2018-08-19T02:04:15.087Z,87.60
2018-08-19T02:06:44.520Z,87.70
2018-08-19T02:09:15.359Z,88.00
2018-08-19T02:11:48.930Z,87.90
2018-08-19T02:14:18.351Z,88.10
2018-08-19T02:16:47.769Z,88.30
2018-08-19T02:19:16.331Z,88.00
2018-08-19T02:21:45.637Z,88.20
2018-08-19T02:24:14.736Z,88.30
2018-08-19T02:26:43.363Z,88.20
2018-08-19T02:29:28.658Z,88.30
2018-08-19T02:32:01.078Z,88.30
2018-08-19T02:34:31.525Z,88.30
2018-08-19T02:37:07.067Z,88.30
2018-08-19T02:39:37.817Z,88.50
2018-08-19T02:42:29.540Z,88.80
2018-08-19T02:45:02.343Z,88.90
2018-08-19T02:47:31.562Z,89.10
2018-08-19T02:50:00.112Z,89.30
2018-08-19T02:52:31.652Z,89.00
2018-08-19T02:55:01.573Z,88.90
2018-08-19T02:57:31.012Z,88.80
2018-08-19T03:00:00.580Z,89.00
2018-08-19T03:02:30.472Z,89.00
2018-08-19T03:04:59.788Z,88.90
2018-08-19T03:07:29.603Z,89.00
2018-08-19T03:10:03.470Z,89.30
2018-08-19T03:12:32.072Z,89.80
2018-08-19T03:15:00.649Z,89.40
2018-08-19T03:17:30.173Z,89.20
2018-08-19T03:19:59.498Z,89.50
2018-08-19T03:22:28.864Z,89.90
2018-08-19T03:24:59.293Z,90.00
2018-08-19T03:27:27.862Z,89.80
2018-08-19T03:29:57.763Z,90.00
2018-08-19T03:32:26.635Z,89.60
2018-08-19T03:35:05.301Z,89.70
2018-08-19T03:37:34.545Z,89.70
2018-08-19T03:40:03.236Z,89.70
2018-08-19T03:42:31.955Z,89.40
2018-08-19T03:45:08.563Z,89.40
2018-08-19T03:47:37.097Z,89.80
2018-08-19T03:50:11.094Z,89.80
2018-08-19T03:52:41.167Z,89.50
2018-08-19T03:55:13.963Z,89.50
2018-08-19T03:57:42.587Z,89.80
2018-08-19T04:00:13.260Z,90.00
2018-08-19T04:02:41.879Z,90.10
2018-08-19T04:05:10.448Z,90.30
2018-08-19T04:07:38.991Z,90.30
2018-08-19T04:10:07.567Z,90.10
2018-08-19T04:12:36.152Z,90.40
2018-08-19T04:15:08.282Z,90.60
2018-08-19T04:17:36.804Z,90.60
2018-08-19T04:20:06.290Z,90.60
2018-08-19T04:22:34.879Z,90.50
2018-08-19T04:25:03.469Z,90.40
2018-08-19T04:27:32.029Z,90.30
2018-08-19T04:30:00.570Z,90.50
2018-08-19T04:32:32.144Z,90.30
2018-08-19T04:35:01.749Z,90.30
2018-08-19T04:37:30.566Z,90.10
2018-08-19T04:39:59.846Z,90.00
2018-08-19T04:42:28.404Z,90.00
2018-08-19T04:44:56.967Z,90.00
2018-08-19T04:47:28.581Z,90.00
2018-08-19T04:49:57.166Z,90.30
2018-08-19T04:52:25.944Z,89.90
2018-08-19T04:54:55.578Z,90.00
2018-08-19T04:57:24.199Z,89.60
2018-08-19T04:59:52.739Z,89.20
2018-08-19T05:02:21.519Z,89.20
2018-08-19T05:04:49.962Z,89.10
2018-08-19T05:07:18.520Z,89.10
2018-08-19T05:09:47.085Z,89.30
2018-08-19T05:12:15.633Z,89.00
2018-08-19T05:14:44.203Z,89.00
2018-08-19T05:17:12.775Z,89.20
2018-08-19T05:19:41.343Z,89.00
2018-08-19T05:22:13.088Z,89.00
2018-08-19T05:24:42.180Z,88.80
2018-08-19T05:27:10.732Z,88.70
2018-08-19T05:29:39.325Z,88.20
2018-08-19T05:32:12.372Z,88.00
2018-08-19T05:34:42.026Z,88.20
2018-08-19T05:37:10.642Z,88.10
2018-08-19T05:40:11.837Z,88.20
2018-08-19T05:42:40.364Z,88.10
2018-08-19T05:45:09.042Z,87.80
2018-08-19T05:47:37.590Z,87.70
2018-08-19T05:50:06.167Z,87.40
2018-08-19T05:52:34.817Z,86.80
2018-08-19T05:55:03.553Z,86.60
2018-08-19T05:57:33.443Z,86.30
2018-08-19T06:00:07.252Z,86.00
2018-08-19T06:02:41.059Z,85.70
2018-08-19T06:05:09.624Z,85.90
2018-08-19T06:07:38.205Z,85.40
2018-08-19T06:10:07.035Z,85.00
2018-08-19T06:12:35.570Z,84.40
2018-08-19T06:15:04.527Z,83.60
2018-08-19T06:17:33.053Z,83.00
2018-08-19T06:20:01.688Z,82.80
2018-08-19T06:22:35.657Z,82.10
2018-08-19T06:25:04.447Z,81.40
2018-08-19T06:27:38.374Z,81.10
2018-08-19T06:30:06.945Z,80.70
2018-08-19T06:32:35.498Z,80.50
2018-08-19T06:35:04.265Z,80.10
2018-08-19T06:37:32.771Z,79.60
2018-08-19T06:40:01.325Z,76.50
2018-08-19T06:42:29.888Z,76.30
2018-08-19T06:44:58.505Z,76.30
2018-08-19T06:47:27.090Z,76.00
2018-08-19T06:49:57.929Z,75.90
2018-08-19T06:52:27.024Z,75.70
2018-08-19T06:54:55.912Z,73.70
2018-08-19T06:57:27.841Z,73.20
2018-08-19T06:59:56.683Z,72.50
2018-08-19T07:02:25.276Z,71.60
2018-08-19T07:04:53.852Z,68.30
2018-08-19T07:07:22.389Z,68.70
2018-08-19T07:09:50.937Z,67.60
2018-08-19T07:12:21.569Z,67.30
2018-08-19T07:14:50.538Z,66.50
2018-08-19T07:17:19.763Z,66.70
2018-08-19T07:19:48.597Z,65.90
2018-08-19T07:22:18.893Z,65.50
2018-08-19T07:24:47.429Z,65.20
2018-08-19T07:27:16.002Z,63.40
2018-08-19T07:29:44.574Z,63.90
2018-08-19T07:32:13.954Z,61.90
2018-08-19T07:34:42.520Z,62.40
2018-08-19T07:37:11.216Z,62.00
2018-08-19T07:39:46.333Z,61.50
2018-08-19T07:42:15.142Z,60.80
2018-08-19T07:44:43.719Z,61.50
2018-08-19T07:47:12.270Z,60.30
2018-08-19T07:49:40.830Z,60.90
2018-08-19T07:52:09.397Z,60.00
2018-08-19T07:54:37.937Z,60.20
2018-08-19T07:57:16.322Z,60.00
2018-08-19T07:59:47.188Z,61.30
2018-08-19T08:02:15.759Z,60.30
2018-08-19T08:04:45.372Z,59.90
2018-08-19T08:07:14.757Z,58.60
2018-08-19T08:09:43.722Z,58.20
2018-08-19T08:12:14.960Z,58.40
2018-08-19T08:14:49.815Z,58.00
2018-08-19T08:17:18.520Z,56.80
2018-08-19T08:19:52.504Z,57.00
2018-08-19T08:22:21.458Z,53.70
2018-08-19T08:24:50.051Z,55.70
2018-08-19T08:27:18.664Z,56.60
2018-08-19T08:29:47.229Z,56.10
2018-08-19T08:32:15.859Z,56.60
2018-08-19T08:34:44.430Z,53.90
2018-08-19T08:37:13.644Z,54.80
2018-08-19T08:39:42.580Z,53.60
2018-08-19T08:42:11.236Z,54.80
2018-08-19T08:44:39.933Z,51.60
2018-08-19T08:47:10.497Z,52.50
2018-08-19T08:49:44.469Z,51.30
2018-08-19T08:52:18.503Z,51.50
2018-08-19T08:54:55.592Z,54.70
2018-08-19T08:57:25.153Z,52.30
2018-08-19T08:59:55.066Z,52.80
2018-08-19T09:02:23.727Z,50.90
2018-08-19T09:04:53.412Z,51.10
2018-08-19T09:07:22.110Z,52.00
2018-08-19T09:09:50.979Z,51.00
2018-08-19T09:12:30.419Z,48.50
2018-08-19T09:14:58.994Z,47.80
2018-08-19T09:17:27.635Z,49.10
2018-08-19T09:19:56.430Z,49.90
2018-08-19T09:22:25.028Z,48.90
2018-08-19T09:24:53.637Z,50.20
2018-08-19T09:27:23.003Z,46.10
2018-08-19T09:29:51.711Z,48.60
2018-08-19T09:32:20.334Z,47.40
2018-08-19T09:34:48.890Z,48.20
2018-08-19T09:37:17.443Z,45.80
2018-08-19T09:39:46.029Z,46.60
2018-08-19T09:42:14.696Z,49.10
2018-08-19T09:44:43.991Z,47.70
2018-08-19T09:47:12.612Z,45.90
2018-08-19T09:49:41.210Z,45.20
2018-08-19T09:52:11.009Z,46.50
2018-08-19T09:54:39.536Z,45.00
2018-08-19T09:57:09.106Z,45.50
2018-08-19T09:59:37.644Z,44.60
2018-08-19T10:02:08.049Z,42.60
2018-08-19T10:04:38.367Z,43.00
2018-08-19T10:07:13.197Z,41.60
2018-08-19T10:09:42.260Z,42.60
2018-08-19T10:12:11.742Z,43.20
2018-08-19T10:14:40.294Z,43.10
2018-08-19T10:17:08.914Z,43.10
2018-08-19T10:19:37.489Z,41.90
2018-08-19T10:22:06.125Z,42.70
2018-08-19T10:24:35.379Z,41.80
2018-08-19T10:27:07.916Z,41.20
2018-08-19T10:29:36.475Z,42.70
2018-08-19T10:32:05.354Z,42.80
2018-08-19T10:34:35.899Z,41.90
2018-08-19T10:37:05.177Z,40.20
2018-08-19T10:39:33.878Z,39.90
2018-08-19T10:42:18.664Z,41.00
2018-08-19T10:44:49.821Z,42.30
2018-08-19T10:47:19.443Z,40.40
2018-08-19T10:50:09.618Z,41.90
2018-08-19T10:52:41.130Z,41.90
2018-08-19T10:55:10.983Z,38.30
2018-08-19T10:57:39.640Z,40.60
2018-08-19T11:00:15.859Z,41.90
2018-08-19T11:02:44.421Z,41.60
2018-08-19T11:05:14.070Z,42.00
2018-08-19T11:07:42.637Z,40.50
2018-08-19T11:10:18.161Z,40.70
2018-08-19T11:12:50.532Z,41.00
2018-08-19T11:15:31.223Z,40.20
2018-08-19T11:18:39.863Z,41.20
2018-08-19T11:21:39.114Z,41.70
2018-08-19T11:24:19.454Z,40.70
2018-08-19T11:26:53.862Z,42.80
2018-08-19T11:29:22.461Z,42.30
2018-08-19T11:31:51.075Z,42.60
2018-08-19T11:34:19.632Z,43.90
2018-08-19T11:36:48.209Z,43.80
2018-08-19T11:39:18.257Z,40.00
2018-08-19T11:41:46.814Z,39.70
2018-08-19T11:44:16.736Z,38.40
2018-08-19T11:46:45.490Z,38.50
2018-08-19T11:49:15.581Z,37.30
2018-08-19T11:51:46.448Z,38.70
2018-08-19T11:54:16.190Z,37.30
2018-08-19T11:56:55.934Z,37.30
2018-08-19T11:59:30.046Z,36.80
2018-08-19T12:01:59.161Z,36.10
2018-08-19T12:04:27.675Z,34.90
2018-08-19T12:06:56.348Z,35.60
2018-08-19T12:09:24.954Z,35.50
2018-08-19T12:11:53.623Z,34.30
2018-08-19T12:14:22.795Z,35.30
2018-08-19T12:16:58.357Z,35.00
2018-08-19T12:19:28.283Z,34.50
2018-08-19T12:22:01.289Z,35.00
2018-08-19T12:24:36.587Z,35.00
2018-08-19T12:27:06.902Z,35.60
2018-08-19T12:29:36.655Z,35.30
2018-08-19T12:32:12.013Z,36.50
2018-08-19T12:34:43.925Z,36.90
2018-08-19T12:37:13.816Z,36.40
2018-08-19T12:39:42.434Z,36.90
2018-08-19T12:42:11.116Z,37.10
2018-08-19T12:44:57.815Z,36.70
2018-08-19T12:47:27.257Z,36.60
2018-08-19T12:50:00.111Z,37.00
2018-08-19T12:52:29.992Z,35.80
2018-08-19T12:55:04.068Z,34.90
2018-08-19T12:57:32.961Z,34.80
2018-08-19T13:00:08.043Z,35.30
2018-08-19T13:02:41.535Z,34.20
2018-08-19T13:05:10.696Z,33.90
2018-08-19T13:07:39.314Z,35.10
2018-08-19T13:10:08.473Z,35.20
2018-08-19T13:12:54.595Z,33.70
2018-08-19T13:15:24.267Z,34.50
2018-08-19T13:17:53.234Z,33.60
2018-08-19T13:20:21.994Z,33.30
2018-08-19T13:22:57.036Z,33.80
2018-08-19T13:25:25.560Z,34.90
2018-08-19T13:27:54.276Z,33.90
2018-08-19T13:30:22.865Z,33.60
2018-08-19T13:32:52.304Z,34.10
2018-08-19T13:35:21.550Z,33.90
2018-08-19T13:37:50.589Z,35.60
2018-08-19T13:40:19.246Z,34.20
2018-08-19T13:42:47.855Z,35.30
2018-08-19T13:45:17.491Z,35.60
2018-08-19T13:47:47.444Z,36.10
2018-08-19T13:50:16.186Z,36.10
2018-08-19T13:52:45.195Z,35.80
2018-08-19T13:55:16.028Z,35.50
2018-08-19T13:57:44.714Z,35.00
2018-08-19T14:00:17.903Z,34.20
2018-08-19T14:02:47.101Z,34.70
2018-08-19T14:05:15.672Z,33.00
2018-08-19T14:07:44.480Z,35.00
2018-08-19T14:10:14.293Z,35.20
2018-08-19T14:12:43.559Z,33.40
2018-08-19T14:15:12.155Z,33.00
2018-08-19T14:17:40.868Z,33.40
2018-08-19T14:20:10.493Z,33.50
2018-08-19T14:22:39.096Z,33.30
2018-08-19T14:25:09.304Z,33.70
2018-08-19T14:27:38.259Z,34.00
2018-08-19T14:30:09.405Z,32.70
2018-08-19T14:32:40.908Z,33.40
2018-08-19T14:35:09.513Z,32.60
2018-08-19T14:37:38.120Z,33.40
2018-08-19T14:40:09.052Z,33.00
2018-08-19T14:42:37.626Z,32.90
2018-08-19T14:45:06.461Z,34.90
2018-08-19T14:47:35.130Z,34.50
2018-08-19T14:50:04.844Z,35.10
2018-08-19T14:52:33.400Z,35.00
2018-08-19T14:55:01.969Z,36.00
2018-08-19T14:57:30.597Z,35.00
2018-08-19T14:59:59.108Z,34.60
2018-08-19T15:02:29.077Z,34.50
2018-08-19T15:04:57.600Z,34.50
2018-08-19T15:07:26.141Z,34.90
2018-08-19T15:09:55.024Z,34.50
2018-08-19T15:12:24.667Z,35.00
2018-08-19T15:14:56.455Z,34.80
2018-08-19T15:17:26.220Z,35.00
2018-08-19T15:19:55.328Z,35.50
2018-08-19T15:22:23.821Z,34.60
2018-08-19T15:24:53.033Z,34.80
2018-08-19T15:27:21.704Z,35.20
2018-08-19T15:29:51.761Z,33.50
2018-08-19T15:32:22.545Z,34.20
2018-08-19T15:34:50.921Z,34.40
2018-08-19T15:37:19.575Z,33.50
2018-08-19T15:39:48.129Z,34.10
2018-08-19T15:42:16.890Z,35.20
2018-08-19T15:44:45.690Z,36.10
2018-08-19T15:47:14.287Z,36.40
2018-08-19T15:49:42.857Z,36.90
2018-08-19T15:52:11.392Z,37.00
2018-08-19T15:54:42.641Z,37.40
2018-08-19T15:57:11.207Z,38.00
2018-08-19T15:59:39.767Z,37.60
2018-08-19T16:02:08.355Z,36.80
2018-08-19T16:04:36.906Z,36.50
2018-08-19T16:07:05.464Z,37.00
2018-08-19T16:09:33.985Z,36.70
2018-08-19T16:12:02.509Z,35.60
2018-08-19T16:14:32.479Z,36.40
2018-08-19T16:17:02.456Z,36.30
2018-08-19T16:19:31.106Z,36.20
2018-08-19T16:22:02.377Z,37.00
2018-08-19T16:24:31.036Z,38.90
2018-08-19T16:26:59.612Z,39.00
2018-08-19T16:29:28.165Z,38.70
2018-08-19T16:31:56.860Z,37.20
2018-08-19T16:34:25.394Z,38.00
2018-08-19T16:36:54.644Z,37.30
2018-08-19T16:39:23.262Z,39.60
2018-08-19T16:41:51.795Z,39.30
2018-08-19T16:44:20.397Z,38.50
2018-08-19T16:46:50.479Z,38.80
2018-08-19T16:49:19.360Z,39.10
2018-08-19T16:51:47.945Z,39.50
2018-08-19T16:54:16.529Z,40.30
2018-08-19T16:56:45.136Z,40.00
2018-08-19T16:59:13.703Z,40.70
2018-08-19T17:01:42.392Z,40.70
2018-08-19T17:04:10.961Z,41.20
2018-08-19T17:06:39.600Z,41.30
2018-08-19T17:09:09.129Z,42.00
2018-08-19T17:11:37.739Z,41.10
2018-08-19T17:14:06.379Z,42.10
2018-08-19T17:16:34.925Z,42.60
2018-08-19T17:19:03.577Z,42.90
2018-08-19T17:21:32.136Z,43.00
2018-08-19T17:24:00.686Z,42.70
2018-08-19T17:26:29.628Z,42.90
2018-08-19T17:29:04.176Z,43.50
2018-08-19T17:31:32.879Z,44.20
2018-08-19T17:34:01.485Z,44.20
2018-08-19T17:36:34.695Z,44.60
2018-08-19T17:39:03.498Z,45.10
2018-08-19T17:41:32.124Z,45.40
2018-08-19T17:44:02.353Z,45.30
2018-08-19T17:46:30.953Z,46.10
2018-08-19T17:48:59.620Z,46.20
2018-08-19T17:51:32.227Z,46.70
2018-08-19T17:54:00.862Z,47.90
2018-08-19T17:56:29.457Z,48.50
2018-08-19T17:58:58.005Z,48.00
2018-08-19T18:01:26.631Z,47.60
2018-08-19T18:03:55.202Z,47.60
2018-08-19T18:06:23.784Z,48.60
2018-08-19T18:08:53.275Z,49.30
2018-08-19T18:11:22.361Z,49.80
2018-08-19T18:13:50.913Z,50.20
2018-08-19T18:16:19.497Z,51.10
2018-08-19T18:18:48.625Z,50.90
2018-08-19T18:21:17.208Z,51.10
2018-08-19T18:23:47.596Z,50.80
2018-08-19T18:26:16.312Z,52.00
2018-08-19T18:28:46.569Z,51.60
2018-08-19T18:31:18.308Z,52.30
2018-08-19T18:33:52.315Z,52.60
2018-08-19T18:36:23.112Z,51.90
2018-08-19T18:38:52.010Z,52.50
2018-08-19T18:41:26.832Z,52.20
2018-08-19T18:43:58.206Z,51.60
2018-08-19T18:46:27.671Z,52.10
2018-08-19T18:49:02.159Z,52.30
2018-08-19T18:51:32.193Z,52.80
2018-08-19T18:54:01.099Z,53.40
2018-08-19T18:56:30.002Z,54.60
2018-08-19T18:58:58.873Z,53.90
2018-08-19T19:01:27.391Z,54.40
2018-08-19T19:03:55.945Z,54.30
2018-08-19T19:06:24.562Z,53.90
2018-08-19T19:08:53.172Z,54.10
2018-08-19T19:11:23.890Z,54.40
2018-08-19T19:13:52.430Z,54.60
2018-08-19T19:16:27.335Z,54.50
2018-08-19T19:18:56.026Z,54.50
2018-08-19T19:21:24.635Z,55.20
2018-08-19T19:23:53.388Z,54.70
2018-08-19T19:26:27.756Z,55.90
2018-08-19T19:28:56.919Z,56.10
2018-08-19T19:31:25.515Z,57.00
2018-08-19T19:34:06.047Z,57.30
2018-08-19T19:36:34.642Z,57.00
2018-08-19T19:39:03.531Z,57.60
2018-08-19T19:41:34.540Z,57.60
2018-08-19T19:44:18.716Z,58.70
2018-08-19T19:46:47.271Z,59.10
2018-08-19T19:49:15.985Z,59.50
2018-08-19T19:51:48.770Z,60.30
2018-08-19T19:54:17.317Z,60.70
2018-08-19T19:56:45.864Z,60.80
2018-08-19T19:59:14.495Z,61.00
2018-08-19T20:01:43.043Z,61.30
2018-08-19T20:04:11.637Z,61.70
2018-08-19T20:06:40.329Z,62.60
2018-08-19T20:09:09.301Z,63.20
2018-08-19T20:11:39.308Z,63.70
2018-08-19T20:14:08.137Z,64.10
2018-08-19T20:16:36.719Z,64.40
2018-08-19T20:19:05.339Z,64.70
2018-08-19T20:21:35.739Z,64.90
2018-08-19T20:24:04.493Z,64.90
2018-08-19T20:26:33.121Z,65.10
2018-08-19T20:29:02.886Z,65.30
2018-08-19T20:31:31.527Z,65.30
2018-08-19T20:34:00.160Z,65.50
2018-08-19T20:36:28.807Z,65.80
2018-08-19T20:38:57.399Z,66.00
2018-08-19T20:41:26.017Z,65.40
2018-08-19T20:43:54.621Z,65.80
2018-08-19T20:46:23.170Z,66.30
2018-08-19T20:48:51.735Z,66.40
2018-08-19T20:51:20.342Z,66.50
2018-08-19T20:53:48.928Z,66.60
2018-08-19T20:56:17.490Z,66.80
2018-08-19T20:58:46.026Z,67.10
2018-08-19T21:01:33.941Z,67.50
2018-08-19T21:04:02.579Z,67.90
2018-08-19T21:06:33.125Z,68.20
2018-08-19T21:09:04.867Z,68.50
2018-08-19T21:11:33.459Z,68.80
2018-08-19T21:14:02.046Z,69.10
2018-08-19T21:16:30.766Z,69.20
2018-08-19T21:18:59.840Z,69.10
2018-08-19T21:21:28.453Z,69.20
2018-08-19T21:23:57.053Z,69.40
2018-08-19T21:26:25.689Z,69.60
2018-08-19T21:28:59.256Z,69.20
2018-08-19T21:31:27.851Z,68.50
2018-08-19T21:33:56.427Z,67.90
2018-08-19T21:36:24.979Z,67.50
2018-08-19T21:38:53.536Z,67.00
2018-08-19T21:41:22.132Z,66.80
2018-08-19T21:43:50.673Z,67.00
2018-08-19T21:46:19.276Z,67.70
2018-08-19T21:48:47.819Z,68.00
2018-08-19T21:51:16.387Z,68.50
2018-08-19T21:53:44.976Z,69.00
2018-08-19T21:56:13.560Z,69.40
2018-08-19T21:58:42.147Z,69.80
2018-08-19T22:01:15.973Z,70.10
2018-08-19T22:03:49.664Z,70.40
2018-08-19T22:06:18.272Z,70.70
2018-08-19T22:08:46.848Z,70.90
2018-08-19T22:11:15.412Z,71.10
2018-08-19T22:13:44.813Z,71.20
2018-08-19T22:16:13.442Z,71.10
2018-08-19T22:18:41.989Z,71.20
2018-08-19T22:21:23.071Z,71.20
2018-08-19T22:23:55.159Z,71.30
2018-08-19T22:26:23.716Z,71.60
2018-08-19T22:29:09.170Z,72.10
2018-08-19T22:31:37.840Z,72.20
2018-08-19T22:34:06.431Z,72.40
2018-08-19T22:36:35.079Z,72.60
2018-08-19T22:39:04.620Z,72.70
2018-08-19T22:41:34.044Z,72.80
2018-08-19T22:44:02.649Z,72.90
2018-08-19T22:46:31.261Z,73.10
2018-08-19T22:48:59.909Z,73.00
2018-08-19T22:51:32.310Z,73.00
2018-08-19T22:54:00.862Z,72.90
2018-08-19T22:56:29.458Z,72.80
2018-08-19T22:58:58.040Z,72.90
2018-08-19T23:01:31.997Z,73.00
2018-08-19T23:04:01.871Z,73.20
2018-08-19T23:06:31.403Z,73.10
2018-08-19T23:09:00.180Z,73.30
2018-08-19T23:11:35.903Z,73.60
2018-08-19T23:14:16.288Z,73.70
2018-08-19T23:16:44.924Z,73.70
2018-08-19T23:19:13.512Z,73.80
2018-08-19T23:21:42.070Z,73.90
2018-08-19T23:24:10.666Z,74.20
2018-08-19T23:26:39.258Z,74.50
2018-08-19T23:29:07.863Z,74.70
2018-08-19T23:31:36.426Z,74.80
2018-08-19T23:34:05.134Z,74.90
2018-08-19T23:36:33.708Z,75.10
2018-08-19T23:39:02.335Z,75.20
2018-08-19T23:41:30.865Z,75.60
2018-08-19T23:43:59.420Z,75.70
2018-08-19T23:46:27.965Z,75.80
2018-08-19T23:48:56.538Z,75.90
2018-08-19T23:51:29.271Z,76.10
2018-08-19T23:53:58.610Z,76.50
2018-08-19T23:56:27.499Z,76.50
2018-08-19T23:58:56.427Z,76.80
